Time;durP1;ratioP1;P1;durP2;ratioP2;P2;SDS_P1;SDS_P2;PMS_P1;PMS_P2;Temp;Humidity;BMP_temperature;BMP_pressure;BME280_temperature;BME280_humidity;BME280_pressure;Samples;Min_cycle;Max_cycle;Signal;HPM_P1;HPM_P2
2022/01/24 00:00:06;;;;;;;;;;;;;;;;;;1031500;28;890;-42
2022/01/24 00:00:39;;;;;;;;;;;;;;;;;;1031797;28;701;-42
2022/01/24 00:01:11;;;;;;;;;;;;;;;;;;1031246;28;1973;-42
2022/01/24 00:01:42;;;;;;;;;;;;;;;;;;1031688;28;1005;-42
2022/01/24 00:02:12;;;;;;;;;;;;;;;;;;1031625;28;1924;-42
2022/01/24 00:02:44;;;;;;;;;;;;;;;;;;1031599;28;966;-42
2022/01/24 00:03:15;;;;;;;;;;;;;;;;;;1031694;28;899;-42
2022/01/24 00:03:45;;;;;;;;;;;;;;;;;;1031529;28;934;-42
2022/01/24 00:04:15;;;;;;;;;;;;;;;;;;1031791;28;792;-41
2022/01/24 00:04:48;;;;;;;;;;;;;;;;;;1031651;28;942;-41
2022/01/24 00:05:19;;;;;;;;;;;;;;;;;;1031520;28;1126;-42
2022/01/24 00:05:49;;;;;;;;;;;;;;;;;;1031569;28;1001;-42
2022/01/24 00:06:19;;;;;;;;;;;;;;;;;;1031690;28;1360;-42
2022/01/24 00:06:50;;;;;;;;;;;;;;;;;;1031718;28;807;-42
2022/01/24 00:07:22;;;;;;;;;;;;;;;;;;1031601;28;970;-42
2022/01/24 00:07:53;;;;;;;;;;;;;;;;;;1031573;28;885;-42
2022/01/24 00:08:23;;;;;;;;;;;;;;;;;;1031678;28;867;-41
2022/01/24 00:08:54;;;;;;;;;;;;;;;;;;1031635;28;922;-42
2022/01/24 00:09:24;;;;;;;;;;;;;;;;;;1031582;28;950;-42
2022/01/24 00:09:58;;;;;;;;;;;;;;;;;;1031727;28;957;-42
2022/01/24 00:10:29;;;;;;;;;;;;;;;;;;1031535;28;866;-42
2022/01/24 00:11:05;;;;;;;;;;;;;;;;;;1031648;28;895;-42
2022/01/24 00:11:41;;;;;;;;;;;;;;;;;;1031575;28;886;-42
2022/01/24 00:12:40;;;;;;;;;;;;;;;;;;1031622;28;894;-42
2022/01/24 00:15:15;;;;;;;;;;;;;;;;;;1031717;28;886;-42
2022/01/24 00:16:18;;;;;;;;;;;;;;;;;;1031291;28;954;-42
2022/01/24 00:17:32;;;;;;;;;;;;;;;;;;1031614;28;930;-42
2022/01/24 00:18:12;;;;;;;;;;;;;;;;;;1031399;28;839;-41
2022/01/24 00:26:53;;;;;;;;;;;;;;;;;;1031629;28;1012;-42
2022/01/24 00:27:25;;;;;;;;;;;;;;;;;;1031234;28;1101;-42
2022/01/24 00:27:55;;;;;;;;;;;;;;;;;;1031615;28;796;-42
2022/01/24 00:28:26;;;;;;;;;;;;;;;;;;1031412;28;851;-42
2022/01/24 00:28:56;;;;;;;;;;;;;;;;;;1031602;28;882;-42
2022/01/24 00:29:28;;;;;;;;;;;;;;;;;;1031490;28;875;-41
2022/01/24 00:29:58;;;;;;;;;;;;;;;;;;1031137;28;1339;-42
2022/01/24 00:30:29;;;;;;;;;;;;;;;;;;1031079;28;918;-42
2022/01/24 00:30:59;;;;;;;;;;;;;;;;;;1031263;28;925;-41
2022/01/24 00:31:29;;;;;;;;;;;;;;;;;;1031109;28;792;-42
2022/01/24 00:32:00;;;;;;;;;;;;;;;;;;1031587;28;929;-41
2022/01/24 00:32:31;;;;;;;;;;;;;;;;;;1031563;28;938;-42
2022/01/24 00:33:01;;;;;;;;;;;;;;;;;;1031516;28;883;-41
2022/01/24 00:33:32;;;;;;;;;;;;;;;;;;1031653;28;941;-42
2022/01/24 00:34:02;;;;;;;;;;;;;;;;;;1031458;28;911;-42
2022/01/24 00:34:33;;;;;;;;;;;;;;;;;;1031566;28;819;-42
2022/01/24 00:35:03;;;;;;;;;;;;;;;;;;1027252;28;954;-42
2022/01/24 00:35:34;;;;;;;;;;;;;;;;;;1027137;28;962;-42
2022/01/24 00:36:04;;;;;;;;;;;;;;;;;;1027162;28;792;-42
2022/01/24 00:36:35;;;;;;;;;;;;;;;;;;1027181;28;965;-42
2022/01/24 00:37:06;;;;;;;;;;;;;;;;;;1031524;28;948;-42
2022/01/24 00:37:36;;;;;;;;;;;;;;;;;;1031639;28;866;-42
2022/01/24 00:38:07;;;;;;;;;;;;;;;;;;1031408;28;878;-42
2022/01/24 00:38:37;;;;;;;;;;;;;;;;;;1031468;28;1665;-42
2022/01/24 00:39:08;;;;;;;;;;;;;;;;;;1031510;28;997;-42
2022/01/24 00:39:39;;;;;;;;;;;;;;;;;;1031514;28;910;-42
2022/01/24 00:40:10;;;;;;;;;;;;;;;;;;1031452;28;1021;-42
2022/01/24 00:40:43;;;;;;;;;;;;;;;;;;1031496;28;898;-42
2022/01/24 00:41:16;;;;;;;;;;;;;;;;;;1031069;28;1973;-42
2022/01/24 00:42:49;;;;;;;;;;;;;;;;;;1031224;28;973;-42
2022/01/24 00:44:53;;;;;;;;;;;;;;;;;;1018885;29;938;-42
2022/01/24 00:45:51;;;;;;;;;;;;;;;;;;1031182;28;1079;-42
2022/01/24 00:46:35;;;;;;;;;;;;;;;;;;1031440;28;890;-42
2022/01/24 00:47:14;;;;;;;;;;;;;;;;;;1031415;28;894;-42
2022/01/24 00:48:37;;;;;;;;;;;;;;;;;;1031409;28;898;-42
2022/01/24 00:53:17;;;;;;;;;;;;;;;;;;1031592;28;976;-42
2022/01/24 00:54:02;;;;;;;;;;;;;;;;;;1031265;28;957;-42
2022/01/24 00:54:44;;;;;;;;;;;;;;;;;;1031564;28;882;-42
2022/01/24 00:55:14;;;;;;;;;;;;;;;;;;1027493;28;787;-42
2022/01/24 00:55:47;;;;;;;;;;;;;;;;;;1027295;28;1032;-42
2022/01/24 00:56:17;;;;;;;;;;;;;;;;;;1027605;28;800;-42
2022/01/24 00:56:48;;;;;;;;;;;;;;;;;;1027362;28;930;-42
2022/01/24 00:57:19;;;;;;;;;;;;;;;;;;1027523;28;929;-42
2022/01/24 00:57:49;;;;;;;;;;;;;;;;;;1027203;28;1017;-41
2022/01/24 00:58:19;;;;;;;;;;;;;;;;;;1027541;28;898;-42
2022/01/24 00:58:50;;;;;;;;;;;;;;;;;;1027408;28;984;-42
2022/01/24 00:59:20;;;;;;;;;;;;;;;;;;1027484;28;1312;-42
2022/01/24 00:59:51;;;;;;;;;;;;;;;;;;1027346;28;851;-42
2022/01/24 01:00:21;;;;;;;;;;;;;;;;;;1027501;28;863;-42
2022/01/24 01:00:51;;;;;;;;;;;;;;;;;;1027319;28;795;-42
2022/01/24 01:01:22;;;;;;;;;;;;;;;;;;1027421;28;1914;-42
2022/01/24 01:01:52;;;;;;;;;;;;;;;;;;1027289;28;941;-42
2022/01/24 01:02:23;;;;;;;;;;;;;;;;;;1027487;28;823;-42
2022/01/24 01:02:53;;;;;;;;;;;;;;;;;;1027514;28;854;-42
2022/01/24 01:03:24;;;;;;;;;;;;;;;;;;1027289;28;958;-42
2022/01/24 01:03:54;;;;;;;;;;;;;;;;;;1027468;28;942;-42
2022/01/24 01:04:32;;;;;;;;;;;;;;;;;;1027359;28;823;-42
2022/01/24 01:06:25;;;;;;;;;;;;;;;;;;1027373;28;867;-42
2022/01/24 01:06:56;;;;;;;;;;;;;;;;;;1027553;28;831;-42
2022/01/24 01:07:41;;;;;;;;;;;;;;;;;;1027408;28;926;-42
2022/01/24 01:18:30;;;;;;;;;;;;;;;;;;1027337;28;946;-42
2022/01/24 01:19:00;;;;;;;;;;;;;;;;;;1027332;28;795;-42
2022/01/24 01:19:31;;;;;;;;;;;;;;;;;;1027449;28;946;-42
2022/01/24 01:20:01;;;;;;;;;;;;;;;;;;1027368;28;910;-41
2022/01/24 01:20:41;;;;;;;;;;;;;;;;;;1027446;28;939;-42
2022/01/24 01:21:14;;;;;;;;;;;;;;;;;;1027402;28;1907;-42
2022/01/24 01:21:45;;;;;;;;;;;;;;;;;;1027148;28;950;-42
2022/01/24 01:22:15;;;;;;;;;;;;;;;;;;1027612;28;866;-42
2022/01/24 01:22:46;;;;;;;;;;;;;;;;;;1027225;28;914;-42
2022/01/24 01:23:16;;;;;;;;;;;;;;;;;;1027376;28;938;-42
2022/01/24 01:23:51;;;;;;;;;;;;;;;;;;1027285;28;870;-42
2022/01/24 01:24:23;;;;;;;;;;;;;;;;;;1027269;28;605;-42
2022/01/24 01:24:55;;;;;;;;;;;;;;;;;;1027420;28;1065;-42
2022/01/24 01:25:25;;;;;;;;;;;;;;;;;;1027430;28;1013;-42
2022/01/24 01:25:57;;;;;;;;;;;;;;;;;;1027322;28;895;-42
2022/01/24 01:26:40;;;;;;;;;;;;;;;;;;1027514;28;902;-42
2022/01/24 01:27:17;;;;;;;;;;;;;;;;;;1027138;28;1061;-42
2022/01/24 01:27:50;;;;;;;;;;;;;;;;;;1027346;28;886;-42
2022/01/24 01:28:21;;;;;;;;;;;;;;;;;;1027397;28;907;-42
2022/01/24 01:29:03;;;;;;;;;;;;;;;;;;1027444;28;918;-42
2022/01/24 01:29:48;;;;;;;;;;;;;;;;;;1027359;28;955;-42
2022/01/24 01:30:22;;;;;;;;;;;;;;;;;;1027521;28;883;-42
2022/01/24 01:30:57;;;;;;;;;;;;;;;;;;1027149;28;895;-42
2022/01/24 01:31:52;;;;;;;;;;;;;;;;;;1027288;28;942;-42
2022/01/24 01:32:43;;;;;;;;;;;;;;;;;;1027353;28;839;-42
2022/01/24 01:33:34;;;;;;;;;;;;;;;;;;1027368;28;1620;-42
2022/01/24 01:40:27;;;;;;;;;;;;;;;;;;1027983;28;969;-42
2022/01/24 01:52:34;;;;;;;;;;;;;;;;;;1031875;28;1407;-43
2022/01/24 01:54:56;;;;;;;;;;;;;;;;;;1032065;28;846;-42
2022/01/24 01:55:38;;;;;;;;;;;;;;;;;;1032286;28;890;-42
2022/01/24 01:56:09;;;;;;;;;;;;;;;;;;1031955;28;895;-42
2022/01/24 01:56:40;;;;;;;;;;;;;;;;;;1032244;28;895;-42
2022/01/24 01:57:15;;;;;;;;;;;;;;;;;;1032212;28;1070;-42
2022/01/24 01:57:45;;;;;;;;;;;;;;;;;;1031983;28;1280;-42
2022/01/24 01:58:18;;;;;;;;;;;;;;;;;;1032293;28;961;-42
2022/01/24 01:58:49;;;;;;;;;;;;;;;;;;1031937;28;847;-42
2022/01/24 01:59:19;;;;;;;;;;;;;;;;;;1032309;28;950;-42
2022/01/24 01:59:49;;;;;;;;;;;;;;;;;;1031959;28;954;-43
2022/01/24 02:00:20;;;;;;;;;;;;;;;;;;1032312;28;811;-42
2022/01/24 02:00:53;;;;;;;;;;;;;;;;;;1032117;28;945;-42
2022/01/24 02:01:23;;;;;;;;;;;;;;;;;;1032013;28;1914;-42
2022/01/24 02:01:54;;;;;;;;;;;;;;;;;;1032159;28;926;-42
2022/01/24 02:02:27;;;;;;;;;;;;;;;;;;1032160;28;824;-43
2022/01/24 02:02:58;;;;;;;;;;;;;;;;;;1032032;28;787;-42
2022/01/24 02:03:28;;;;;;;;;;;;;;;;;;1032182;28;811;-42
2022/01/24 02:04:02;;;;;;;;;;;;;;;;;;1032081;28;840;-42
2022/01/24 02:04:33;;;;;;;;;;;;;;;;;;1032275;28;890;-42
2022/01/24 02:05:05;;;;;;;;;;;;;;;;;;1032149;28;895;-43
2022/01/24 02:05:36;;;;;;;;;;;;;;;;;;1032058;28;951;-42
2022/01/24 02:06:06;;;;;;;;;;;;;;;;;;1032064;28;820;-42
2022/01/24 02:06:38;;;;;;;;;;;;;;;;;;1032044;28;851;-43
2022/01/24 02:07:12;;;;;;;;;;;;;;;;;;1032220;28;1257;-43
2022/01/24 02:07:47;;;;;;;;;;;;;;;;;;1031675;28;1102;-42
2022/01/24 02:08:18;;;;;;;;;;;;;;;;;;1031952;28;918;-42
2022/01/24 02:08:56;;;;;;;;;;;;;;;;;;1032184;28;902;-42
2022/01/24 02:09:30;;;;;;;;;;;;;;;;;;1032063;28;902;-42
2022/01/24 02:10:00;;;;;;;;;;;;;;;;;;1032069;28;922;-42
2022/01/24 02:10:34;;;;;;;;;;;;;;;;;;1032102;28;875;-42
2022/01/24 02:11:04;;;;;;;;;;;;;;;;;;1031975;28;1124;-42
2022/01/24 02:11:34;;;;;;;;;;;;;;;;;;1032194;28;851;-42
2022/01/24 02:12:05;;;;;;;;;;;;;;;;;;1032012;28;851;-42
2022/01/24 02:12:35;;;;;;;;;;;;;;;;;;1032187;28;811;-42
2022/01/24 02:13:06;;;;;;;;;;;;;;;;;;1032117;28;926;-42
2022/01/24 02:13:36;;;;;;;;;;;;;;;;;;1032020;28;863;-42
2022/01/24 02:14:12;;;;;;;;;;;;;;;;;;1032126;28;760;-42
2022/01/24 02:14:49;;;;;;;;;;;;;;;;;;1032003;28;796;-42
2022/01/24 02:15:31;;;;;;;;;;;;;;;;;;1032018;28;980;-42
2022/01/24 02:16:14;;;;;;;;;;;;;;;;;;1031914;28;805;-42
2022/01/24 02:16:57;;;;;;;;;;;;;;;;;;1032251;28;895;-42
2022/01/24 02:17:45;;;;;;;;;;;;;;;;;;1031977;28;989;-43
2022/01/24 02:19:22;;;;;;;;;;;;;;;;;;1032076;28;884;-42
2022/01/24 02:21:04;;;;;;;;;;;;;;;;;;1032137;28;978;-42
2022/01/24 02:23:20;;;;;;;;;;;;;;;;;;1031976;28;950;-42
2022/01/24 02:23:48;;;;;;;;;;;;;;;;;;1031576;28;1682;-42
2022/01/24 02:24:18;;;;;;;;;;;;;;;;;;1032051;28;961;-43
2022/01/24 02:24:56;;;;;;;;;;;;;;;;;;1032168;28;852;-42
2022/01/24 02:25:29;;;;;;;;;;;;;;;;;;1031980;28;927;-42
2022/01/24 02:26:01;;;;;;;;;;;;;;;;;;1032014;28;847;-42
2022/01/24 02:26:32;;;;;;;;;;;;;;;;;;1032041;28;791;-42
2022/01/24 02:27:03;;;;;;;;;;;;;;;;;;1031903;28;1437;-43
2022/01/24 02:27:44;;;;;;;;;;;;;;;;;;1032084;28;850;-42
2022/01/24 02:28:17;;;;;;;;;;;;;;;;;;1031829;28;941;-43
2022/01/24 02:30:37;;;;;;;;;;;;;;;;;;1032012;28;942;-42
2022/01/24 02:31:22;;;;;;;;;;;;;;;;;;1031874;28;1274;-42
2022/01/24 02:31:54;;;;;;;;;;;;;;;;;;1031870;28;898;-43
2022/01/24 02:32:25;;;;;;;;;;;;;;;;;;1031992;28;1767;-42
2022/01/24 02:32:56;;;;;;;;;;;;;;;;;;1032090;28;914;-42
2022/01/24 02:33:26;;;;;;;;;;;;;;;;;;1031978;28;946;-43
2022/01/24 02:33:56;;;;;;;;;;;;;;;;;;1031979;28;838;-42
2022/01/24 02:34:34;;;;;;;;;;;;;;;;;;1031992;28;957;-42
2022/01/24 02:35:04;;;;;;;;;;;;;;;;;;1032047;28;921;-43
2022/01/24 02:35:35;;;;;;;;;;;;;;;;;;1031999;28;954;-43
2022/01/24 02:36:07;;;;;;;;;;;;;;;;;;1032017;28;823;-43
2022/01/24 02:36:38;;;;;;;;;;;;;;;;;;1031844;28;1029;-43
2022/01/24 02:37:10;;;;;;;;;;;;;;;;;;1032137;28;961;-42
2022/01/24 02:37:40;;;;;;;;;;;;;;;;;;1031887;28;1278;-43
2022/01/24 02:38:29;;;;;;;;;;;;;;;;;;1032055;28;859;-42
2022/01/24 02:39:42;;;;;;;;;;;;;;;;;;1031917;28;818;-43
2022/01/24 02:40:12;;;;;;;;;;;;;;;;;;1031719;28;1217;-42
2022/01/24 02:40:42;;;;;;;;;;;;;;;;;;1031954;28;823;-42
2022/01/24 02:48:27;;;;;;;;;;;;;;;;;;1031779;28;878;-42
2022/01/24 02:48:57;;;;;;;;;;;;;;;;;;1031821;28;1086;-43
2022/01/24 02:49:32;;;;;;;;;;;;;;;;;;1031931;28;902;-42
2022/01/24 02:50:03;;;;;;;;;;;;;;;;;;1031962;28;1637;-42
2022/01/24 02:51:01;;;;;;;;;;;;;;;;;;1031993;28;874;-42
2022/01/24 02:51:45;;;;;;;;;;;;;;;;;;1032012;28;942;-42
2022/01/24 02:52:17;;;;;;;;;;;;;;;;;;1031817;28;1009;-42
2022/01/24 02:52:47;;;;;;;;;;;;;;;;;;1031981;28;954;-42
2022/01/24 02:53:18;;;;;;;;;;;;;;;;;;1031928;28;894;-43
2022/01/24 02:53:48;;;;;;;;;;;;;;;;;;1031895;28;993;-42
2022/01/24 02:54:23;;;;;;;;;;;;;;;;;;1031975;28;929;-42
2022/01/24 02:54:53;;;;;;;;;;;;;;;;;;1031916;28;890;-42
2022/01/24 02:55:24;;;;;;;;;;;;;;;;;;1031896;28;1134;-42
2022/01/24 02:55:54;;;;;;;;;;;;;;;;;;1031908;28;913;-42
2022/01/24 02:56:25;;;;;;;;;;;;;;;;;;1031937;28;898;-42
2022/01/24 02:56:55;;;;;;;;;;;;;;;;;;1032029;28;780;-42
2022/01/24 02:57:26;;;;;;;;;;;;;;;;;;1031843;28;902;-42
2022/01/24 02:57:56;;;;;;;;;;;;;;;;;;1031979;28;937;-42
2022/01/24 02:58:27;;;;;;;;;;;;;;;;;;1031952;28;795;-42
2022/01/24 02:58:57;;;;;;;;;;;;;;;;;;1031931;28;1602;-42
2022/01/24 02:59:28;;;;;;;;;;;;;;;;;;1031919;28;906;-42
2022/01/24 02:59:58;;;;;;;;;;;;;;;;;;1031812;28;882;-43
2022/01/24 03:00:28;;;;;;;;;;;;;;;;;;1031936;28;914;-42
2022/01/24 03:00:59;;;;;;;;;;;;;;;;;;1031786;28;1914;-42
2022/01/24 03:01:29;;;;;;;;;;;;;;;;;;1031753;28;882;-42
2022/01/24 03:02:00;;;;;;;;;;;;;;;;;;1031927;28;965;-42
2022/01/24 03:02:30;;;;;;;;;;;;;;;;;;1031894;28;925;-43
2022/01/24 03:03:00;;;;;;;;;;;;;;;;;;1031874;28;862;-43
2022/01/24 03:03:31;;;;;;;;;;;;;;;;;;1031928;28;791;-42
2022/01/24 03:04:01;;;;;;;;;;;;;;;;;;1031724;28;954;-42
2022/01/24 03:04:31;;;;;;;;;;;;;;;;;;1031934;28;894;-42
2022/01/24 03:05:02;;;;;;;;;;;;;;;;;;1031977;28;922;-42
2022/01/24 03:05:32;;;;;;;;;;;;;;;;;;1031936;28;886;-42
2022/01/24 03:06:03;;;;;;;;;;;;;;;;;;1031945;28;918;-43
2022/01/24 03:06:33;;;;;;;;;;;;;;;;;;1031801;28;886;-42
2022/01/24 03:07:04;;;;;;;;;;;;;;;;;;1032047;28;887;-42
2022/01/24 03:07:34;;;;;;;;;;;;;;;;;;1031822;28;974;-42
2022/01/24 03:08:06;;;;;;;;;;;;;;;;;;1031784;28;855;-42
2022/01/24 03:08:39;;;;;;;;;;;;;;;;;;1031828;28;850;-42
2022/01/24 03:09:10;;;;;;;;;;;;;;;;;;1032031;28;901;-42
2022/01/24 03:09:41;;;;;;;;;;;;;;;;;;1031813;28;859;-42
2022/01/24 03:10:24;;;;;;;;;;;;;;;;;;1031910;28;958;-42
2022/01/24 03:10:55;;;;;;;;;;;;;;;;;;1031616;28;965;-42
2022/01/24 03:11:27;;;;;;;;;;;;;;;;;;1032114;28;903;-42
2022/01/24 03:12:12;;;;;;;;;;;;;;;;;;1031692;28;891;-43
2022/01/24 03:12:45;;;;;;;;;;;;;;;;;;1031842;28;910;-42
2022/01/24 03:13:55;;;;;;;;;;;;;;;;;;1031793;28;803;-42
2022/01/24 03:14:28;;;;;;;;;;;;;;;;;;1031913;28;906;-42
2022/01/24 03:14:58;;;;;;;;;;;;;;;;;;1031831;28;831;-42
2022/01/24 03:15:28;;;;;;;;;;;;;;;;;;1031953;28;847;-42
2022/01/24 03:16:00;;;;;;;;;;;;;;;;;;1031733;28;890;-42
2022/01/24 03:16:31;;;;;;;;;;;;;;;;;;1031913;28;941;-42
2022/01/24 03:17:03;;;;;;;;;;;;;;;;;;1031905;28;826;-42
2022/01/24 03:17:33;;;;;;;;;;;;;;;;;;1031769;28;922;-40
2022/01/24 03:18:05;;;;;;;;;;;;;;;;;;1031878;28;870;-40
2022/01/24 03:18:35;;;;;;;;;;;;;;;;;;1031620;28;882;-40
2022/01/24 03:19:06;;;;;;;;;;;;;;;;;;1031912;28;970;-39
2022/01/24 03:19:36;;;;;;;;;;;;;;;;;;1031883;28;938;-40
2022/01/24 03:20:06;;;;;;;;;;;;;;;;;;1031775;28;835;-40
2022/01/24 03:20:37;;;;;;;;;;;;;;;;;;1031665;28;1010;-40
2022/01/24 03:21:07;;;;;;;;;;;;;;;;;;1031385;28;1981;-40
2022/01/24 03:21:38;;;;;;;;;;;;;;;;;;1031468;28;795;-41
2022/01/24 03:22:11;;;;;;;;;;;;;;;;;;1031455;28;1255;-42
2022/01/24 03:22:41;;;;;;;;;;;;;;;;;;1030927;28;887;-42
2022/01/24 03:23:12;;;;;;;;;;;;;;;;;;1027671;28;887;-42
2022/01/24 03:23:43;;;;;;;;;;;;;;;;;;1028031;28;831;-42
2022/01/24 03:24:14;;;;;;;;;;;;;;;;;;1031840;28;886;-42
2022/01/24 03:24:45;;;;;;;;;;;;;;;;;;1031760;28;937;-42
2022/01/24 03:25:15;;;;;;;;;;;;;;;;;;1031755;28;994;-42
2022/01/24 03:25:46;;;;;;;;;;;;;;;;;;1031822;28;824;-42
2022/01/24 03:26:16;;;;;;;;;;;;;;;;;;1031931;28;973;-42
2022/01/24 03:26:47;;;;;;;;;;;;;;;;;;1031681;28;965;-42
2022/01/24 03:27:17;;;;;;;;;;;;;;;;;;1031732;28;1036;-42
2022/01/24 03:27:48;;;;;;;;;;;;;;;;;;1031656;28;890;-42
2022/01/24 03:28:18;;;;;;;;;;;;;;;;;;1031814;28;827;-42
2022/01/24 03:28:52;;;;;;;;;;;;;;;;;;1031762;28;1055;-41
2022/01/24 03:29:22;;;;;;;;;;;;;;;;;;1031803;28;759;-42
2022/01/24 03:29:53;;;;;;;;;;;;;;;;;;1031656;28;898;-42
2022/01/24 03:30:23;;;;;;;;;;;;;;;;;;1031976;28;961;-42
2022/01/24 03:30:54;;;;;;;;;;;;;;;;;;1031522;28;812;-41
2022/01/24 03:31:24;;;;;;;;;;;;;;;;;;1031992;28;772;-42
2022/01/24 03:31:55;;;;;;;;;;;;;;;;;;1031535;28;879;-41
2022/01/24 03:32:25;;;;;;;;;;;;;;;;;;1032023;28;886;-42
2022/01/24 03:32:56;;;;;;;;;;;;;;;;;;1031685;28;859;-42
2022/01/24 03:33:26;;;;;;;;;;;;;;;;;;1031897;28;910;-41
2022/01/24 03:33:57;;;;;;;;;;;;;;;;;;1031662;28;894;-42
2022/01/24 03:34:27;;;;;;;;;;;;;;;;;;1031879;28;835;-41
2022/01/24 03:34:57;;;;;;;;;;;;;;;;;;1031750;28;910;-42
2022/01/24 03:35:28;;;;;;;;;;;;;;;;;;1031857;28;875;-42
2022/01/24 03:35:58;;;;;;;;;;;;;;;;;;1031616;28;878;-42
2022/01/24 03:36:29;;;;;;;;;;;;;;;;;;1031948;28;930;-42
2022/01/24 03:36:59;;;;;;;;;;;;;;;;;;1031605;28;970;-41
2022/01/24 03:37:29;;;;;;;;;;;;;;;;;;1031732;28;914;-42
2022/01/24 03:38:00;;;;;;;;;;;;;;;;;;1031687;28;1010;-42
2022/01/24 03:38:31;;;;;;;;;;;;;;;;;;1031789;28;823;-41
2022/01/24 03:39:02;;;;;;;;;;;;;;;;;;1031723;28;890;-41
2022/01/24 03:39:33;;;;;;;;;;;;;;;;;;1031713;28;938;-41
2022/01/24 03:40:04;;;;;;;;;;;;;;;;;;1031684;28;950;-42
2022/01/24 03:40:34;;;;;;;;;;;;;;;;;;1031678;28;1005;-42
2022/01/24 03:41:05;;;;;;;;;;;;;;;;;;1031509;28;1919;-41
2022/01/24 03:41:35;;;;;;;;;;;;;;;;;;1031772;28;958;-42
2022/01/24 03:42:05;;;;;;;;;;;;;;;;;;1031679;28;891;-42
2022/01/24 03:42:36;;;;;;;;;;;;;;;;;;1031677;28;1386;-42
2022/01/24 03:43:07;;;;;;;;;;;;;;;;;;1031775;28;942;-41
2022/01/24 03:43:37;;;;;;;;;;;;;;;;;;1031684;28;946;-41
2022/01/24 03:44:11;;;;;;;;;;;;;;;;;;1031637;28;993;-41
2022/01/24 03:44:44;;;;;;;;;;;;;;;;;;1031715;28;951;-42
2022/01/24 03:45:16;;;;;;;;;;;;;;;;;;1031648;28;910;-42
2022/01/24 03:46:08;;;;;;;;;;;;;;;;;;1031698;28;957;-42
2022/01/24 03:47:02;;;;;;;;;;;;;;;;;;1031506;28;1336;-42
2022/01/24 03:48:09;;;;;;;;;;;;;;;;;;1031591;28;1021;-42
2022/01/24 03:48:47;;;;;;;;;;;;;;;;;;1031759;28;1122;-42
2022/01/24 03:50:08;;;;;;;;;;;;;;;;;;1031700;28;886;-42
2022/01/24 03:50:38;;;;;;;;;;;;;;;;;;1031623;28;792;-42
2022/01/24 03:51:09;;;;;;;;;;;;;;;;;;1031641;28;844;-42
2022/01/24 03:51:39;;;;;;;;;;;;;;;;;;1031628;28;1304;-42
2022/01/24 03:52:10;;;;;;;;;;;;;;;;;;1031625;28;887;-42
2022/01/24 03:52:41;;;;;;;;;;;;;;;;;;1031768;28;1005;-42
2022/01/24 03:53:11;;;;;;;;;;;;;;;;;;1031732;28;866;-42
2022/01/24 03:53:42;;;;;;;;;;;;;;;;;;1031661;28;1496;-42
2022/01/24 03:54:12;;;;;;;;;;;;;;;;;;1031654;28;947;-42
2022/01/24 03:54:43;;;;;;;;;;;;;;;;;;1031699;28;847;-42
2022/01/24 03:55:13;;;;;;;;;;;;;;;;;;1031705;28;1052;-42
2022/01/24 03:55:44;;;;;;;;;;;;;;;;;;1031647;28;890;-42
2022/01/24 03:56:15;;;;;;;;;;;;;;;;;;1031755;28;812;-42
2022/01/24 03:56:45;;;;;;;;;;;;;;;;;;1031780;28;843;-42
2022/01/24 03:57:16;;;;;;;;;;;;;;;;;;1031649;28;1115;-42
2022/01/24 03:57:47;;;;;;;;;;;;;;;;;;1031679;28;879;-42
2022/01/24 03:58:17;;;;;;;;;;;;;;;;;;1031570;28;887;-42
2022/01/24 03:58:47;;;;;;;;;;;;;;;;;;1031706;28;918;-41
2022/01/24 03:59:17;;;;;;;;;;;;;;;;;;1031813;28;890;-41
2022/01/24 03:59:48;;;;;;;;;;;;;;;;;;1031597;28;907;-41
2022/01/24 04:00:19;;;;;;;;;;;;;;;;;;1031751;28;957;-41
2022/01/24 04:00:49;;;;;;;;;;;;;;;;;;1031567;28;942;-41
2022/01/24 04:01:19;;;;;;;;;;;;;;;;;;1031610;28;1902;-42
2022/01/24 04:01:50;;;;;;;;;;;;;;;;;;1031735;28;930;-41
2022/01/24 04:02:21;;;;;;;;;;;;;;;;;;1031645;28;823;-42
2022/01/24 04:02:52;;;;;;;;;;;;;;;;;;1031682;28;843;-41
2022/01/24 04:03:22;;;;;;;;;;;;;;;;;;1031814;28;883;-42
2022/01/24 04:03:52;;;;;;;;;;;;;;;;;;1031414;28;883;-41
2022/01/24 04:04:23;;;;;;;;;;;;;;;;;;1031845;28;867;-42
2022/01/24 04:04:54;;;;;;;;;;;;;;;;;;1031557;28;808;-42
2022/01/24 04:05:24;;;;;;;;;;;;;;;;;;1031777;28;895;-42
2022/01/24 04:05:54;;;;;;;;;;;;;;;;;;1031669;28;871;-42
2022/01/24 04:06:24;;;;;;;;;;;;;;;;;;1027311;28;851;-42
2022/01/24 04:06:55;;;;;;;;;;;;;;;;;;1027207;28;966;-42
2022/01/24 04:07:26;;;;;;;;;;;;;;;;;;1027414;28;902;-41
2022/01/24 04:07:56;;;;;;;;;;;;;;;;;;1027240;28;1477;-42
2022/01/24 04:08:26;;;;;;;;;;;;;;;;;;1031778;28;871;-42
2022/01/24 04:08:57;;;;;;;;;;;;;;;;;;1031496;28;997;-42
2022/01/24 04:09:27;;;;;;;;;;;;;;;;;;1031849;28;1082;-41
2022/01/24 04:10:04;;;;;;;;;;;;;;;;;;1031515;28;950;-42
2022/01/24 04:10:41;;;;;;;;;;;;;;;;;;1031675;28;807;-42
2022/01/24 04:11:13;;;;;;;;;;;;;;;;;;1031183;28;875;-42
2022/01/24 04:11:44;;;;;;;;;;;;;;;;;;1031272;28;625;-42
2022/01/24 04:12:15;;;;;;;;;;;;;;;;;;1031333;28;965;-42
2022/01/24 04:12:46;;;;;;;;;;;;;;;;;;1031341;28;899;-42
2022/01/24 04:13:33;;;;;;;;;;;;;;;;;;1031463;28;958;-42
2022/01/24 04:14:30;;;;;;;;;;;;;;;;;;1031578;28;994;-42
2022/01/24 04:15:08;;;;;;;;;;;;;;;;;;1031071;28;1524;-42
2022/01/24 04:16:30;;;;;;;;;;;;;;;;;;1031594;28;965;-42
2022/01/24 04:17:46;;;;;;;;;;;;;;;;;;1031491;28;933;-42
2022/01/24 04:18:31;;;;;;;;;;;;;;;;;;1025696;28;1317;-42
2022/01/24 04:19:32;;;;;;;;;;;;;;;;;;1031635;28;776;-42
2022/01/24 04:21:30;;;;;;;;;;;;;;;;;;1031361;28;1910;-42
2022/01/24 04:22:00;;;;;;;;;;;;;;;;;;1031338;28;947;-42
2022/01/24 04:22:35;;;;;;;;;;;;;;;;;;1031752;28;890;-42
2022/01/24 04:23:06;;;;;;;;;;;;;;;;;;1031619;28;962;-42
2022/01/24 04:23:40;;;;;;;;;;;;;;;;;;1031439;28;894;-42
2022/01/24 04:24:17;;;;;;;;;;;;;;;;;;1031604;28;957;-42
2022/01/24 04:24:49;;;;;;;;;;;;;;;;;;1031600;28;906;-42
2022/01/24 04:25:23;;;;;;;;;;;;;;;;;;1031551;28;893;-42
2022/01/24 04:25:53;;;;;;;;;;;;;;;;;;1031458;28;894;-42
2022/01/24 04:26:24;;;;;;;;;;;;;;;;;;1031500;28;978;-42
2022/01/24 04:26:54;;;;;;;;;;;;;;;;;;1031541;28;926;-42
2022/01/24 04:27:25;;;;;;;;;;;;;;;;;;1031366;28;1132;-42
2022/01/24 04:27:55;;;;;;;;;;;;;;;;;;1031510;28;867;-42
2022/01/24 04:28:26;;;;;;;;;;;;;;;;;;1031594;28;922;-42
2022/01/24 04:28:57;;;;;;;;;;;;;;;;;;1031483;28;898;-42
2022/01/24 04:29:27;;;;;;;;;;;;;;;;;;1031685;28;982;-42
2022/01/24 04:29:58;;;;;;;;;;;;;;;;;;1031281;28;1028;-42
2022/01/24 04:30:28;;;;;;;;;;;;;;;;;;1031720;28;997;-42
2022/01/24 04:30:58;;;;;;;;;;;;;;;;;;1031414;28;882;-42
2022/01/24 04:31:29;;;;;;;;;;;;;;;;;;1031543;28;926;-42
2022/01/24 04:31:59;;;;;;;;;;;;;;;;;;1031385;28;985;-42
2022/01/24 04:32:30;;;;;;;;;;;;;;;;;;1031649;28;799;-42
2022/01/24 04:33:00;;;;;;;;;;;;;;;;;;1031458;28;925;-42
2022/01/24 04:33:30;;;;;;;;;;;;;;;;;;1031721;28;1131;-42
2022/01/24 04:34:01;;;;;;;;;;;;;;;;;;1031307;28;953;-41
2022/01/24 04:34:31;;;;;;;;;;;;;;;;;;1031652;28;810;-42
2022/01/24 04:35:02;;;;;;;;;;;;;;;;;;1031503;28;906;-42
2022/01/24 04:35:32;;;;;;;;;;;;;;;;;;1031551;28;957;-42
2022/01/24 04:36:03;;;;;;;;;;;;;;;;;;1031444;28;684;-42
2022/01/24 04:36:33;;;;;;;;;;;;;;;;;;1031571;28;831;-42
2022/01/24 04:37:04;;;;;;;;;;;;;;;;;;1031641;28;815;-42
2022/01/24 04:37:35;;;;;;;;;;;;;;;;;;1031491;28;910;-42
2022/01/24 04:38:05;;;;;;;;;;;;;;;;;;1031378;28;871;-41
2022/01/24 04:38:35;;;;;;;;;;;;;;;;;;1031597;28;886;-41
2022/01/24 04:39:06;;;;;;;;;;;;;;;;;;1031532;28;845;-42
2022/01/24 04:39:36;;;;;;;;;;;;;;;;;;1031519;28;842;-42
2022/01/24 04:40:07;;;;;;;;;;;;;;;;;;1031520;28;1098;-42
2022/01/24 04:40:37;;;;;;;;;;;;;;;;;;1031397;28;931;-41
2022/01/24 04:41:16;;;;;;;;;;;;;;;;;;1031104;28;1983;-41
2022/01/24 04:41:50;;;;;;;;;;;;;;;;;;1031259;28;952;-41
2022/01/24 04:42:29;;;;;;;;;;;;;;;;;;1031058;28;816;-41
2022/01/24 04:43:20;;;;;;;;;;;;;;;;;;1031530;28;942;-41
2022/01/24 04:44:00;;;;;;;;;;;;;;;;;;1031502;28;1256;-41
2022/01/24 04:45:57;;;;;;;;;;;;;;;;;;1031562;28;981;-41
2022/01/24 04:50:44;;;;;;;;;;;;;;;;;;1031450;28;930;-41
2022/01/24 04:52:25;;;;;;;;;;;;;;;;;;1031501;28;930;-41
2022/01/24 04:53:04;;;;;;;;;;;;;;;;;;1031495;28;946;-41
2022/01/24 04:54:44;;;;;;;;;;;;;;;;;;1031506;28;823;-41
2022/01/24 04:55:14;;;;;;;;;;;;;;;;;;1031208;28;951;-41
2022/01/24 04:55:44;;;;;;;;;;;;;;;;;;1031554;28;836;-42
2022/01/24 04:56:15;;;;;;;;;;;;;;;;;;1031411;28;895;-42
2022/01/24 04:56:45;;;;;;;;;;;;;;;;;;1031544;28;921;-41
2022/01/24 04:57:16;;;;;;;;;;;;;;;;;;1031397;28;871;-42
2022/01/24 04:57:47;;;;;;;;;;;;;;;;;;1031391;28;945;-41
2022/01/24 04:58:17;;;;;;;;;;;;;;;;;;1031507;28;847;-41
2022/01/24 04:58:47;;;;;;;;;;;;;;;;;;1031546;28;989;-42
2022/01/24 04:59:18;;;;;;;;;;;;;;;;;;1031304;28;919;-41
2022/01/24 04:59:50;;;;;;;;;;;;;;;;;;1031571;28;1283;-41
2022/01/24 05:00:20;;;;;;;;;;;;;;;;;;1031374;28;941;-41
2022/01/24 05:00:51;;;;;;;;;;;;;;;;;;1031432;28;945;-41
2022/01/24 05:01:22;;;;;;;;;;;;;;;;;;1031356;28;1922;-41
2022/01/24 05:01:52;;;;;;;;;;;;;;;;;;1031282;28;946;-41
2022/01/24 05:02:23;;;;;;;;;;;;;;;;;;1031509;28;784;-41
2022/01/24 05:02:53;;;;;;;;;;;;;;;;;;1031512;28;970;-41
2022/01/24 05:03:24;;;;;;;;;;;;;;;;;;1031453;28;823;-42
2022/01/24 05:03:54;;;;;;;;;;;;;;;;;;1031498;28;922;-42
2022/01/24 05:04:25;;;;;;;;;;;;;;;;;;1031292;28;997;-41
2022/01/24 05:04:59;;;;;;;;;;;;;;;;;;1031479;28;930;-42
2022/01/24 05:05:30;;;;;;;;;;;;;;;;;;1031421;28;941;-42
2022/01/24 05:06:01;;;;;;;;;;;;;;;;;;1031411;28;946;-41
2022/01/24 05:06:31;;;;;;;;;;;;;;;;;;1031432;28;962;-42